Time;durP1;ratioP1;P1;durP2;ratioP2;P2;SDS_P1;SDS_P2;PMS_P1;PMS_P2;Temp;Humidity;BMP_temperature;BMP_pressure;BME280_temperature;BME280_humidity;BME280_pressure;Samples;Min_cycle;Max_cycle;Signal;HPM_P1;HPM_P2
2021/10/05 00:00:40;;;;;;;30.70;20.05;;;;;;;13.19;73.98;100420.30;2037674;86;32993;-59
2021/10/05 00:03:45;;;;;;;25.95;19.30;;;;;;;13.18;73.92;100409.14;2029937;86;27776;-60
2021/10/05 00:06:49;;;;;;;27.95;20.52;;;;;;;13.18;73.90;100407.80;2020651;87;27710;-60
2021/10/05 00:09:55;;;;;;;26.52;19.65;;;;;;;13.17;73.67;100401.56;2011478;87;28678;-60
2021/10/05 00:13:01;;;;;;;28.57;20.50;;;;;;;13.16;73.73;100397.14;1993123;87;31171;-58
2021/10/05 00:16:07;;;;;;;30.50;22.13;;;;;;;13.15;73.62;100390.52;2024685;84;32981;-59
2021/10/05 00:19:12;;;;;;;28.83;21.12;;;;;;;13.13;73.72;100389.25;2045370;85;29078;-59
2021/10/05 00:22:18;;;;;;;33.78;23.18;;;;;;;13.10;73.51;100388.08;2060086;85;28366;-59
2021/10/05 00:25:24;;;;;;;31.17;20.90;;;;;;;13.05;73.67;100388.36;2054244;86;29526;-59
2021/10/05 00:28:28;;;;;;;36.03;21.17;;;;;;;13.02;73.55;100397.09;2024043;87;31059;-60
2021/10/05 00:31:33;;;;;;;32.10;21.97;;;;;;;12.99;73.61;100395.42;2017476;87;33084;-61
2021/10/05 00:34:37;;;;;;;33.65;21.77;;;;;;;12.97;73.68;100388.41;2025007;87;29071;-59
2021/10/05 00:37:39;;;;;;;32.40;22.77;;;;;;;12.95;73.74;100385.83;2027735;85;27739;-59
2021/10/05 00:40:45;;;;;;;32.50;22.55;;;;;;;12.92;73.76;100381.97;2047226;85;28713;-59
2021/10/05 00:43:53;;;;;;;34.20;23.80;;;;;;;12.88;73.66;100373.22;2061551;85;31867;-60
2021/10/05 00:47:01;;;;;;;34.92;21.55;;;;;;;12.85;73.61;100368.02;2064001;85;33045;-59
2021/10/05 00:50:08;;;;;;;31.35;21.62;;;;;;;12.81;73.74;100367.80;2039203;84;30062;-59
2021/10/05 00:53:13;;;;;;;29.95;19.55;;;;;;;12.77;73.63;100359.52;2035944;86;27645;-59
2021/10/05 00:56:16;;;;;;;24.82;18.25;;;;;;;12.74;73.65;100360.56;2029915;85;28717;-60
2021/10/05 00:59:22;;;;;;;26.23;19.30;;;;;;;12.72;73.75;100353.56;2058323;85;31225;-59
2021/10/05 01:02:28;;;;;;;29.37;20.08;;;;;;;12.69;73.68;100349.70;2058746;85;32987;-60
2021/10/05 01:05:34;;;;;;;27.98;19.57;;;;;;;12.66;73.71;100340.46;2038859;86;29037;-59
2021/10/05 01:08:36;;;;;;;25.30;19.90;;;;;;;12.64;73.79;100337.88;2045265;85;27734;-59
2021/10/05 01:11:42;;;;;;;32.48;21.12;;;;;;;12.61;73.66;100331.33;2052832;85;28612;-60
2021/10/05 01:14:48;;;;;;;33.50;22.52;;;;;;;12.57;73.54;100320.36;2041787;84;31073;-59
2021/10/05 01:17:53;;;;;;;26.00;18.60;;;;;;;12.52;73.58;100304.51;2050472;85;32973;-60
2021/10/05 01:21:01;;;;;;;;;;;;;;;12.46;73.53;100303.50;2037563;85;29074;-60
2021/10/05 01:24:19;;;;;;;29.85;20.15;;;;;;;12.43;73.56;100298.30;1994803;87;27682;-59
2021/10/05 01:27:25;;;;;;;31.10;21.25;;;;;;;12.38;73.60;100305.78;2028459;86;29904;-58
2021/10/05 01:30:30;;;;;;;33.28;21.73;;;;;;;12.36;73.60;100300.97;2011094;86;31963;-60
2021/10/05 01:33:36;;;;;;;37.30;24.55;;;;;;;12.34;73.62;100297.50;2036657;86;32978;-60
2021/10/05 01:36:39;;;;;;;38.63;24.55;;;;;;;12.31;73.61;100288.66;2037152;86;29045;-60
2021/10/05 01:39:45;;;;;;;41.75;25.43;;;;;;;12.29;73.64;100282.50;2000402;86;27936;-61
2021/10/05 01:42:51;;;;;;;39.05;25.62;;;;;;;12.25;73.61;100278.25;2010080;87;28678;-61
2021/10/05 01:45:58;;;;;;;35.38;23.22;;;;;;;12.19;73.55;100282.66;1992572;87;31176;-60
2021/10/05 01:49:00;;;;;;;33.70;23.42;;;;;;;12.16;73.52;100282.82;2020107;86;33095;-60
2021/10/05 01:52:07;;;;;;;32.30;21.07;;;;;;;12.13;73.52;100270.45;2024398;86;29553;-61
2021/10/05 01:55:16;;;;;;;32.17;21.73;;;;;;;12.09;73.59;100278.27;2053636;84;27716;-61
2021/10/05 01:58:20;;;;;;;28.87;20.40;;;;;;;12.05;73.63;100279.88;2013906;84;28667;-60
2021/10/05 02:01:25;;;;;;;33.20;22.17;;;;;;;12.03;73.69;100277.76;2023399;86;31954;-59
2021/10/05 02:04:31;;;;;;;29.77;21.33;;;;;;;11.99;73.67;100279.27;2037554;86;32968;-60
2021/10/05 02:07:38;;;;;;;29.37;20.80;;;;;;;11.97;73.66;100278.45;2030002;86;29088;-59
2021/10/05 02:10:42;;;;;;;31.30;21.45;;;;;;;11.95;73.74;100266.08;2035395;86;27756;-60
2021/10/05 02:13:48;;;;;;;29.57;19.77;;;;;;;11.91;73.86;100261.36;2041366;86;28716;-59
2021/10/05 02:16:52;;;;;;;30.12;20.37;;;;;;;11.91;73.92;100266.73;2000428;87;31966;-60
2021/10/05 02:19:57;;;;;;;32.25;22.32;;;;;;;11.90;74.04;100264.11;2007348;88;33014;-59
2021/10/05 02:23:02;;;;;;;39.40;25.12;;;;;;;11.91;74.20;100259.14;2005038;88;29068;-59
2021/10/05 02:26:05;;;;;;;45.60;29.90;;;;;;;11.91;74.49;100250.63;2009855;87;27654;-60
2021/10/05 02:29:10;;;;;;;40.98;27.70;;;;;;;11.94;75.60;100242.37;2003026;87;28700;-60
2021/10/05 02:32:14;;;;;;;42.60;26.23;;;;;;;11.96;75.96;100247.18;1980230;87;31067;-60
2021/10/05 02:35:20;;;;;;;40.33;25.92;;;;;;;11.97;76.11;100241.35;2027002;87;32995;-60
2021/10/05 02:38:25;;;;;;;39.13;27.27;;;;;;;11.98;76.01;100239.94;2029158;86;29051;-60
2021/10/05 02:41:31;;;;;;;38.35;26.93;;;;;;;12.00;76.34;100241.19;2033580;86;28456;-60
2021/10/05 02:44:35;;;;;;;38.65;27.00;;;;;;;12.03;76.60;100233.45;2028023;86;29454;-60
2021/10/05 02:47:41;;;;;;;45.25;32.00;;;;;;;12.06;76.47;100232.80;2066107;85;31080;-59
2021/10/05 02:50:43;;;;;;;50.30;33.53;;;;;;;12.09;76.88;100230.40;2022453;87;33044;-60
2021/10/05 02:53:46;;;;;;;49.95;33.35;;;;;;;12.11;76.86;100227.16;2010435;87;29198;-60
2021/10/05 02:56:51;;;;;;;49.95;32.48;;;;;;;12.15;77.10;100223.34;2011604;87;27761;-60
2021/10/05 02:59:57;;;;;;;49.95;33.58;;;;;;;12.21;77.34;100212.72;2015541;87;29334;-60
2021/10/05 03:03:02;;;;;;;54.48;36.15;;;;;;;12.26;77.60;100206.61;2015054;86;31098;-60
2021/10/05 03:06:04;;;;;;;59.20;38.85;;;;;;;12.28;77.60;100205.56;2019749;87;33805;-61
2021/10/05 03:09:06;;;;;;;52.88;37.88;;;;;;;12.31;78.05;100208.07;2018261;87;29926;-60
2021/10/05 03:12:12;;;;;;;56.23;37.70;;;;;;;12.33;77.89;100205.77;2021015;86;27823;-60
2021/10/05 03:15:16;;;;;;;48.70;32.73;;;;;;;12.34;77.98;100212.88;1997857;86;28640;-59
2021/10/05 03:18:21;;;;;;;48.60;32.17;;;;;;;12.35;78.07;100211.44;2064237;84;31043;-60
2021/10/05 03:21:27;;;;;;;48.83;32.28;;;;;;;12.36;77.91;100203.77;2058492;85;33008;-61
2021/10/05 03:24:32;;;;;;;48.98;33.20;;;;;;;12.39;77.92;100198.71;1976267;86;28888;-59
2021/10/05 03:27:38;;;;;;;46.73;32.95;;;;;;;12.41;77.92;100213.77;2021344;87;28334;-60
2021/10/05 03:30:42;;;;;;;50.80;34.75;;;;;;;12.41;78.01;100204.86;2002081;87;29658;-61
2021/10/05 03:33:47;;;;;;;50.30;33.20;;;;;;;12.42;78.10;100199.39;2006641;86;31020;-61
2021/10/05 03:36:52;;;;;;;50.17;32.85;;;;;;;12.39;77.94;100200.05;2016327;87;32996;-62
2021/10/05 03:39:57;;;;;;;43.95;32.28;;;;;;;12.39;77.97;100200.05;2010602;87;29113;-60
2021/10/05 03:43:03;;;;;;;44.73;32.00;;;;;;;12.38;77.83;100188.92;2002979;87;27685;-60
2021/10/05 03:46:08;;;;;;;47.30;31.48;;;;;;;12.41;78.12;100188.75;2027292;87;28665;-61
2021/10/05 03:49:14;;;;;;;49.40;32.70;;;;;;;12.42;77.92;100191.33;2025968;87;32360;-60
2021/10/05 03:52:17;;;;;;;50.33;33.33;;;;;;;12.45;77.94;100196.98;2021573;86;32964;-61
2021/10/05 03:55:22;;;;;;;51.18;35.20;;;;;;;12.45;77.92;100194.30;2067872;84;29057;-60
2021/10/05 03:58:27;;;;;;;56.02;36.33;;;;;;;12.44;78.01;100180.48;2060901;85;27731;-62
2021/10/05 04:01:33;;;;;;;48.52;34.53;;;;;;;12.38;77.92;100174.99;2054247;84;29672;-59
2021/10/05 04:04:35;;;;;;;49.55;33.73;;;;;;;12.37;78.17;100171.06;1986429;87;31040;-61
2021/10/05 04:07:37;;;;;;;48.63;32.03;;;;;;;12.35;78.24;100159.55;1979782;89;32844;-60
2021/10/05 04:10:43;;;;;;;55.50;32.90;;;;;;;12.33;78.03;100150.22;2026685;86;29848;-60
2021/10/05 04:13:49;;;;;;;50.50;34.53;;;;;;;12.34;78.22;100146.58;2027582;87;27769;-60
2021/10/05 04:16:55;;;;;;;49.15;33.38;;;;;;;12.31;78.34;100144.95;2030920;87;28643;-60
2021/10/05 04:20:00;;;;;;;50.08;35.33;;;;;;;12.28;78.41;100133.03;2011940;87;30502;-61
2021/10/05 04:23:03;;;;;;;50.35;34.55;;;;;;;12.25;78.37;100133.70;2028419;86;32990;-60
2021/10/05 04:26:09;;;;;;;48.58;32.88;;;;;;;12.25;78.43;100125.64;2029989;86;29461;-60
2021/10/05 04:29:15;;;;;;;45.83;31.45;;;;;;;12.25;78.46;100123.81;1983129;88;27777;-60
2021/10/05 04:32:21;;;;;;;48.38;31.02;;;;;;;12.25;78.69;100118.44;2040919;86;28644;-60
2021/10/05 04:35:26;;;;;;;47.38;30.32;;;;;;;12.25;78.74;100119.78;2023930;86;31122;-60
2021/10/05 04:38:29;;;;;;;54.50;35.78;;;;;;;12.26;78.73;100120.66;2048857;85;33663;-60
2021/10/05 04:41:35;;;;;;;54.25;34.38;;;;;;;12.26;78.82;100119.32;2063136;84;29046;-60
2021/10/05 04:44:41;;;;;;;51.15;34.43;;;;;;;12.27;78.69;100117.88;2060545;84;27735;-61
2021/10/05 04:47:47;;;;;;;50.45;33.50;;;;;;;12.29;78.59;100117.30;2013515;87;28726;-60
2021/10/05 04:50:52;;;;;;;50.63;34.78;;;;;;;12.31;78.57;100113.20;2008624;87;30638;-61
2021/10/05 04:53:58;;;;;;;49.73;32.90;;;;;;;12.34;78.55;100117.52;2020405;87;32972;-60
2021/10/05 04:57:04;;;;;;;47.03;31.87;;;;;;;12.36;78.51;100107.55;2011056;87;29120;-62
2021/10/05 05:00:11;;;;;;;54.80;34.43;;;;;;;12.37;78.50;100098.53;1999036;87;27720;-59
2021/10/05 05:03:17;;;;;;;50.88;33.95;;;;;;;12.37;78.49;100100.73;2064955;85;28654;-59
2021/10/05 05:06:23;;;;;;;46.23;34.70;;;;;;;12.39;78.54;100088.56;2039597;85;31114;-59
2021/10/05 05:09:30;;;;;;;50.05;34.35;;;;;;;12.43;78.52;100085.59;2006073;87;32962;-59
2021/10/05 05:12:35;;;;;;;49.33;33.10;;;;;;;12.44;78.43;100079.72;2005451;87;29134;-59
2021/10/05 05:15:39;;;;;;;47.60;32.75;;;;;;;12.49;78.42;100070.06;2000402;88;27830;-59
2021/10/05 05:18:45;;;;;;;46.37;30.77;;;;;;;12.46;78.37;100068.41;1989745;88;28776;-58
2021/10/05 05:21:49;;;;;;;50.45;32.78;;;;;;;12.47;78.40;100059.39;1994663;87;31101;-59
2021/10/05 05:24:52;;;;;;;53.42;35.03;;;;;;;12.46;78.35;100047.80;2000638;87;33091;-59
2021/10/05 05:27:56;;;;;;;50.48;34.38;;;;;;;12.51;78.41;100042.12;2002544;88;29063;-59
2021/10/05 05:31:02;;;;;;;48.20;35.35;;;;;;;12.55;78.42;100034.73;2002571;87;27761;-59
2021/10/05 05:34:08;;;;;;;54.05;35.68;;;;;;;12.57;78.40;100027.44;2006851;87;28653;-59
2021/10/05 05:37:14;;;;;;;49.20;31.52;;;;;;;12.57;78.60;100026.98;2003921;87;31705;-60
2021/10/05 05:40:19;;;;;;;43.95;29.85;;;;;;;12.61;78.50;100031.67;2006373;87;34008;-59
2021/10/05 05:43:24;;;;;;;46.73;30.92;;;;;;;12.66;78.51;100025.51;2004271;87;29074;-60
2021/10/05 05:46:30;;;;;;;45.48;30.23;;;;;;;12.73;78.43;100030.05;2003566;87;27858;-59
2021/10/05 05:49:34;;;;;;;47.13;31.15;;;;;;;12.78;78.37;100024.38;2027547;87;29283;-59
2021/10/05 05:52:37;;;;;;;43.50;31.17;;;;;;;12.82;78.39;100026.77;1973199;88;31644;-59
2021/10/05 05:55:44;;;;;;;50.52;33.60;;;;;;;12.89;78.39;100026.77;1981766;88;33019;-60
2021/10/05 05:58:52;;;;;;;54.15;34.85;;;;;;;12.95;78.42;100025.51;1992775;88;29096;-59
2021/10/05 06:01:57;;;;;;;47.35;32.95;;;;;;;13.01;78.60;100026.94;2062519;84;27661;-59
2021/10/05 06:05:01;;;;;;;43.42;31.02;;;;;;;13.09;78.65;100019.22;2014759;87;28660;-60
2021/10/05 06:08:06;;;;;;;47.83;29.82;;;;;;;13.23;78.64;100012.95;2023110;87;31022;-60
2021/10/05 06:11:11;;;;;;;47.80;30.03;;;;;;;13.42;78.78;100025.23;2011726;87;33004;-59
2021/10/05 06:14:16;;;;;;;49.03;32.03;;;;;;;13.59;78.65;100026.31;2009187;87;29109;-60
2021/10/05 06:17:20;;;;;;;45.20;31.73;;;;;;;13.81;78.54;100023.04;2022796;87;28367;-61
2021/10/05 06:20:27;;;;;;;44.93;30.57;;;;;;;14.04;78.39;100006.27;2022042;87;28688;-59
2021/10/05 06:23:32;;;;;;;43.28;28.35;;;;;;;14.26;77.98;100009.20;2041804;85;31044;-60
2021/10/05 06:26:38;;;;;;;45.10;27.48;;;;;;;14.46;77.46;99998.86;2038588;86;33769;-60
2021/10/05 06:29:43;;;;;;;37.90;27.35;;;;;;;14.69;77.47;100000.41;2062960;84;29117;-60
2021/10/05 06:32:56;;;;;;;41.48;27.58;;;;;;;14.87;77.03;99995.55;2042589;85;28015;-59
2021/10/05 06:36:01;;;;;;;40.45;26.75;;;;;;;15.12;77.12;99989.69;2009775;86;29478;-59
2021/10/05 06:39:07;;;;;;;36.38;26.37;;;;;;;15.40;76.52;99975.47;2020382;87;31261;-60
2021/10/05 06:42:09;;;;;;;42.30;26.93;;;;;;;15.63;76.46;99962.45;1995945;86;33008;-59
2021/10/05 06:45:15;;;;;;;35.80;25.90;;;;;;;15.90;75.70;99963.19;2041167;86;29033;-60
2021/10/05 06:48:17;;;;;;;42.30;24.55;;;;;;;16.19;75.65;99966.80;2032806;86;27696;-61
2021/10/05 06:51:23;;;;;;;38.13;26.57;;;;;;;16.44;75.12;99948.13;2039319;86;29123;-60
2021/10/05 06:54:29;;;;;;;31.70;24.80;;;;;;;16.89;74.71;99957.18;2028235;87;31074;-63
2021/10/05 06:57:35;;;;;;;32.53;24.72;;;;;;;17.27;74.08;99959.96;2017244;87;32998;-60
2021/10/05 07:00:41;;;;;;;39.45;24.63;;;;;;;17.69;74.12;99964.59;2026194;86;29057;-62
2021/10/05 07:03:47;;;;;;;32.55;23.77;;;;;;;18.08;72.74;99958.14;2024924;86;27681;-61
2021/10/05 07:06:53;;;;;;;32.78;21.70;;;;;;;18.42;72.51;99947.04;2040946;86;28735;-60
2021/10/05 07:09:58;;;;;;;31.33;21.55;;;;;;;18.83;72.63;99942.97;1974011;88;31267;-60
2021/10/05 07:13:03;;;;;;;31.23;21.65;;;;;;;19.30;71.86;99935.56;1994703;87;32839;-61
2021/10/05 07:16:08;;;;;;;27.58;20.15;;;;;;;19.70;70.33;99923.70;1995765;88;29035;-60
2021/10/05 07:19:13;;;;;;;28.57;19.73;;;;;;;20.09;69.63;99924.15;1973698;88;28218;-61
2021/10/05 07:22:19;;;;;;;26.33;19.85;;;;;;;20.38;68.10;99916.38;2005208;88;29185;-61
2021/10/05 07:25:24;;;;;;;30.23;19.05;;;;;;;20.62;66.88;99910.40;2029969;85;31042;-62
2021/10/05 07:28:28;;;;;;;26.00;18.07;;;;;;;20.90;67.01;99906.84;2035636;86;33009;-63
2021/10/05 07:31:35;;;;;;;22.93;18.32;;;;;;;21.00;65.35;99904.05;2032292;86;29052;-60
2021/10/05 07:34:40;;;;;;;25.70;18.50;;;;;;;21.25;64.46;99902.44;2060717;84;28140;-61
2021/10/05 07:37:45;;;;;;;21.70;18.35;;;;;;;21.52;64.35;99901.98;1996237;87;28741;-59
2021/10/05 07:40:51;;;;;;;20.05;16.82;;;;;;;21.84;64.75;99903.31;1999352;87;31037;-60
2021/10/05 07:43:56;;;;;;;23.38;16.62;;;;;;;22.07;64.23;99902.77;1986820;87;33622;-59
2021/10/05 07:47:02;;;;;;;22.65;16.48;;;;;;;22.26;63.26;99884.80;2009725;87;29838;-59
2021/10/05 07:50:08;;;;;;;24.80;16.20;;;;;;;22.51;62.45;99882.73;2003228;87;27712;-60
2021/10/05 07:53:13;;;;;;;22.20;16.42;;;;;;;22.75;61.46;99884.69;2013922;86;29538;-59
2021/10/05 07:56:19;;;;;;;18.55;15.35;;;;;;;22.84;60.49;99874.11;1999182;87;30491;-60
2021/10/05 07:59:25;;;;;;;19.95;15.70;;;;;;;23.01;60.53;99865.95;2000020;88;32996;-59
2021/10/05 08:02:30;;;;;;;21.77;14.95;;;;;;;23.24;60.58;99859.38;2011531;87;29073;-61
2021/10/05 08:05:37;;;;;;;21.10;13.78;;;;;;;23.51;60.71;99845.02;1999497;88;28362;-60
2021/10/05 08:08:44;;;;;;;16.95;12.50;;;;;;;23.68;58.97;99849.94;1992682;87;28691;-60
2021/10/05 08:11:49;;;;;;;17.55;12.30;;;;;;;23.57;57.25;99832.53;1990773;87;31041;-60
2021/10/05 08:14:55;;;;;;;17.15;12.03;;;;;;;23.30;56.79;99824.52;1993009;87;32966;-61
2021/10/05 08:18:00;;;;;;;14.43;11.88;;;;;;;23.09;56.62;99829.59;2000816;87;29041;-61
2021/10/05 08:21:05;;;;;;;17.32;11.25;;;;;;;22.90;56.67;99821.56;1974586;88;27797;-61
2021/10/05 08:24:10;;;;;;;20.57;11.05;;;;;;;22.67;56.72;99815.89;1995584;88;28850;-59
2021/10/05 08:27:16;;;;;;;22.00;12.28;;;;;;;22.50;56.09;99809.55;2006987;87;32086;-61
2021/10/05 08:30:23;;;;;;;19.80;10.63;;;;;;;22.28;56.27;99804.13;2005652;88;32992;-61
2021/10/05 08:33:27;;;;;;;18.55;10.40;;;;;;;22.15;56.18;99789.60;2006699;87;29066;-59
2021/10/05 08:36:31;;;;;;;16.95;11.12;;;;;;;22.07;56.60;99785.46;1999649;88;28139;-60
2021/10/05 08:39:35;;;;;;;18.52;10.93;;;;;;;22.06;56.41;99790.56;1995904;87;28703;-60
2021/10/05 08:42:40;;;;;;;16.50;10.53;;;;;;;22.04;56.95;99793.47;1998543;87;31044;-60
2021/10/05 08:45:45;;;;;;;19.35;11.78;;;;;;;22.10;56.00;99796.05;1996137;87;33008;-60
2021/10/05 08:48:49;;;;;;;;;;;;;;;22.07;55.65;99784.97;2001038;87;29031;-62
2021/10/05 08:51:56;;;;;;;17.90;10.30;;;;;;;22.13;56.62;99788.91;1975230;87;27804;-61
2021/10/05 08:55:01;;;;;;;17.20;10.53;;;;;;;22.16;56.16;99786.70;2011364;87;29319;-59
2021/10/05 08:58:07;;;;;;;17.37;11.18;;;;;;;22.19;56.30;99773.75;2006166;87;31054;-60
2021/10/05 09:01:14;;;;;;;15.53;10.75;;;;;;;22.15;55.27;99770.50;1997708;87;32984;-59
2021/10/05 09:04:21;;;;;;;22.10;10.48;;;;;;;22.11;55.68;99767.23;2000866;88;29073;-59
2021/10/05 09:07:27;;;;;;;22.87;11.38;;;;;;;22.09;55.61;99763.80;2004997;87;27643;-60
2021/10/05 09:10:34;;;;;;;16.87;10.90;;;;;;;22.13;55.42;99756.17;1995344;87;29574;-59
2021/10/05 09:13:41;;;;;;;21.80;11.75;;;;;;;22.15;55.65;99752.25;2041254;84;31047;-60
2021/10/05 09:16:47;;;;;;;20.40;11.22;;;;;;;22.17;55.49;99750.73;2063893;85;32962;-60
2021/10/05 09:19:53;;;;;;;16.02;11.28;;;;;;;22.21;54.70;99755.34;2042082;85;29084;-64
2021/10/05 09:23:16;;;;;;;23.02;13.18;;;;;;;22.20;55.12;99758.56;2022824;87;27881;-60
2021/10/05 09:26:21;;;;;;;22.00;11.33;;;;;;;22.28;55.37;99753.15;1989327;88;29114;-61
2021/10/05 09:29:35;;;;;;;15.70;10.50;;;;;;;22.38;55.89;99750.28;1967188;89;31697;-60
2021/10/05 09:32:40;;;;;;;13.60;10.60;;;;;;;22.43;54.76;99747.07;2041603;86;33001;-60
2021/10/05 09:35:47;;;;;;;17.37;10.68;;;;;;;22.44;55.21;99750.15;2001872;86;29069;-60
2021/10/05 09:38:56;;;;;;;15.13;10.15;;;;;;;22.47;54.79;99749.81;2025247;86;27741;-59
2021/10/05 09:42:02;;;;;;;17.95;10.72;;;;;;;22.49;54.86;99741.45;2027740;86;28678;-59
2021/10/05 09:45:12;;;;;;;16.40;10.08;;;;;;;22.51;55.09;99736.68;2027199;87;31784;-63
2021/10/05 09:48:13;;;;;;;12.93;9.35;;;;;;;22.56;54.13;99736.52;2029718;87;32987;-59
2021/10/05 09:51:26;;;;;;;14.70;10.25;;;;;;;22.61;54.34;99731.91;2026336;86;29457;-59
2021/10/05 09:54:32;;;;;;;15.88;10.55;;;;;;;22.63;54.30;99735.33;2027056;86;27721;-59
2021/10/05 09:57:37;;;;;;;16.05;9.70;;;;;;;22.67;54.54;99725.78;2056995;85;28652;-59
2021/10/05 10:00:45;;;;;;;14.38;9.35;;;;;;;22.74;54.37;99725.95;2018973;85;31896;-60
2021/10/05 10:03:51;;;;;;;14.63;9.18;;;;;;;22.78;53.59;99721.00;2023303;87;33976;-60
2021/10/05 10:06:57;;;;;;;14.65;8.88;;;;;;;22.82;53.83;99716.41;2025679;87;29125;-60
2021/10/05 10:10:03;;;;;;;14.00;8.93;;;;;;;22.87;53.46;99707.70;2033625;86;27899;-60
2021/10/05 10:13:09;;;;;;;16.82;9.10;;;;;;;22.94;52.41;99702.41;2028538;87;28694;-60
2021/10/05 10:16:15;;;;;;;10.40;8.43;;;;;;;23.00;53.24;99705.83;2024913;87;31861;-59
2021/10/05 10:19:32;;;;;;;18.15;8.75;;;;;;;23.09;53.03;99698.44;1990331;86;33607;-58
2021/10/05 10:22:48;;;;;;;19.52;10.80;;;;;;;23.13;52.55;99689.75;2043804;86;29892;-59
2021/10/05 10:26:05;;;;;;;15.05;8.88;;;;;;;23.14;51.39;99692.83;2025100;86;27680;-59
2021/10/05 10:29:14;;;;;;;11.97;8.20;;;;;;;23.16;52.05;99689.41;1974436;87;29459;-59
2021/10/05 10:32:20;;;;;;;13.53;7.55;;;;;;;23.18;52.16;99688.70;2007619;88;30886;-59
2021/10/05 10:35:27;;;;;;;17.50;9.43;;;;;;;23.23;52.53;99686.86;2000726;88;33792;-59
2021/10/05 10:38:35;;;;;;;19.17;8.28;;;;;;;23.25;51.26;99678.48;2003964;88;29123;-59
2021/10/05 10:41:43;;;;;;;19.07;8.58;;;;;;;23.26;51.40;99682.92;2055564;85;27672;-60
2021/10/05 10:44:48;;;;;;;13.62;8.38;;;;;;;23.29;51.04;99679.31;2047951;84;28097;-61
2021/10/05 10:47:54;;;;;;;12.70;7.92;;;;;;;23.33;51.17;99686.14;2043718;85;31075;-59
2021/10/05 10:51:02;;;;;;;11.55;8.08;;;;;;;23.38;50.85;99676.58;2002248;86;33016;-58
2021/10/05 10:54:18;;;;;;;12.25;7.97;;;;;;;23.42;51.25;99671.08;2026776;86;29071;-61
2021/10/05 10:57:35;;;;;;;12.07;8.25;;;;;;;23.47;51.40;99660.47;2032848;86;27763;-61
2021/10/05 11:00:41;;;;;;;12.43;7.70;;;;;;;23.50;51.03;99654.66;1978406;88;28909;-61
2021/10/05 11:03:47;;;;;;;12.98;8.25;;;;;;;23.55;50.52;99658.22;1987887;88;31099;-60
2021/10/05 11:06:53;;;;;;;14.93;8.63;;;;;;;23.57;50.24;99652.94;1990686;87;32982;-60
2021/10/05 11:09:58;;;;;;;10.30;7.85;;;;;;;23.63;50.42;99653.57;1999147;86;29102;-60
2021/10/05 11:13:06;;;;;;;14.45;7.40;;;;;;;23.69;49.67;99653.38;2028504;87;27705;-60
2021/10/05 11:16:12;;;;;;;13.58;8.15;;;;;;;23.73;49.80;99641.05;2035455;86;28656;-60
2021/10/05 11:19:18;;;;;;;12.45;7.87;;;;;;;23.79;50.29;99632.64;2026835;86;31764;-62
2021/10/05 11:22:24;;;;;;;15.70;7.58;;;;;;;23.85;49.50;99634.67;1990429;87;32982;-61
2021/10/05 11:25:30;;;;;;;13.70;7.50;;;;;;;23.90;49.48;99625.42;2027978;87;29846;-63
2021/10/05 11:28:34;;;;;;;12.93;7.58;;;;;;;23.97;48.86;99621.48;2036051;86;28260;-60
2021/10/05 11:31:50;;;;;;;11.17;7.70;;;;;;;24.02;48.37;99615.45;2037031;86;28674;-60
2021/10/05 11:34:55;;;;;;;19.35;7.70;;;;;;;24.06;49.08;99603.13;2037798;86;31498;-59
2021/10/05 11:38:01;;;;;;;15.50;7.12;;;;;;;24.11;48.38;99597.44;2026365;86;33064;-61
2021/10/05 11:41:07;;;;;;;11.10;7.55;;;;;;;24.17;47.55;99602.69;1996160;87;29810;-60
2021/10/05 11:44:18;;;;;;;7.90;6.20;;;;;;;24.24;47.92;99597.34;2022918;87;27651;-60
2021/10/05 11:47:26;;;;;;;14.00;7.40;;;;;;;24.31;47.51;99590.11;2024711;85;28681;-60
2021/10/05 11:50:29;;;;;;;16.87;7.87;;;;;;;24.37;46.98;99581.67;2014705;87;31028;-61
2021/10/05 11:53:39;;;;;;;14.20;7.58;;;;;;;24.47;47.70;99577.31;2016222;87;33627;-60
2021/10/05 11:56:44;;;;;;;13.75;6.85;;;;;;;24.52;47.53;99573.48;2007714;86;29171;-60
2021/10/05 11:59:50;;;;;;;15.70;6.87;;;;;;;24.56;47.07;99576.19;2029904;87;27713;-60
2021/10/05 12:02:55;;;;;;;17.02;7.30;;;;;;;24.62;47.39;99565.87;2038201;86;28706;-60
2021/10/05 12:05:58;;;;;;;17.62;8.13;;;;;;;24.67;47.51;99563.41;2019835;86;31043;-59
2021/10/05 12:09:04;;;;;;;19.10;6.25;;;;;;;24.72;45.94;99566.47;2032388;84;33092;-59
2021/10/05 12:12:17;;;;;;;11.90;5.75;;;;;;;24.78;45.28;99555.81;2046425;85;29089;-59
2021/10/05 12:15:23;;;;;;;11.00;5.60;;;;;;;24.84;44.85;99561.89;2019057;87;27665;-59
2021/10/05 12:18:26;;;;;;;6.97;5.22;;;;;;;24.87;43.92;99555.55;2052236;85;29361;-59
2021/10/05 12:21:32;;;;;;;13.65;6.85;;;;;;;24.93;44.14;99562.66;2031042;86;31898;-59
2021/10/05 12:24:57;;;;;;;13.22;6.40;;;;;;;24.97;44.45;99563.48;2036904;86;32972;-59
2021/10/05 12:28:01;;;;;;;9.50;5.75;;;;;;;25.01;44.39;99549.72;1973903;88;29066;-59
2021/10/05 12:31:16;;;;;;;9.95;6.45;;;;;;;25.07;43.20;99551.37;1975463;88;27801;-59
2021/10/05 12:34:24;;;;;;;9.25;5.65;;;;;;;25.10;44.14;99540.88;2010857;87;29295;-58
2021/10/05 12:37:33;;;;;;;8.18;5.50;;;;;;;25.13;43.82;99541.03;2009333;87;31154;-59
2021/10/05 12:40:52;;;;;;;6.62;5.95;;;;;;;25.16;43.89;99544.73;1994162;88;33820;-59
2021/10/05 12:43:57;;;;;;;12.65;6.05;;;;;;;25.20;43.86;99550.72;2002228;88;29711;-59
2021/10/05 12:47:06;;;;;;;11.03;5.92;;;;;;;25.21;43.24;99549.14;1986253;88;27785;-60
2021/10/05 12:50:09;;;;;;;10.40;5.90;;;;;;;25.21;43.26;99547.77;2001798;87;28678;-59
2021/10/05 12:53:15;;;;;;;8.13;5.90;;;;;;;25.21;43.35;99545.03;2014313;86;31219;-59
2021/10/05 12:56:30;;;;;;;7.47;5.87;;;;;;;25.22;43.13;99541.25;1986990;88;32982;-60
2021/10/05 12:59:29;;;;;;;8.10;6.25;;;;;;;25.23;43.29;99547.59;1989962;88;29055;-59
2021/10/05 13:02:34;;;;;;;14.63;6.17;;;;;;;25.23;43.18;99541.58;2024816;86;27837;-59
2021/10/05 13:05:40;;;;;;;10.63;6.10;;;;;;;25.21;43.04;99545.03;1997489;88;28811;-59
2021/10/05 13:08:47;;;;;;;12.07;5.72;;;;;;;25.17;42.65;99534.98;2002161;87;30892;-58
2021/10/05 13:11:52;;;;;;;17.07;6.05;;;;;;;25.14;42.12;99535.89;1993124;88;33009;-58
2021/10/05 13:14:56;;;;;;;10.78;5.97;;;;;;;25.12;42.50;99537.42;2029270;86;29107;-59
2021/10/05 13:18:04;;;;;;;14.00;9.08;;;;;;;25.10;42.57;99530.45;2031787;86;27733;-60
2021/10/05 13:21:10;;;;;;;18.02;6.15;;;;;;;25.09;42.93;99543.28;2005393;87;29609;-59
2021/10/05 13:24:15;;;;;;;13.75;6.12;;;;;;;25.07;42.41;99552.21;2011577;86;31896;-59
2021/10/05 13:27:18;;;;;;;10.00;6.47;;;;;;;25.02;42.21;99548.67;2048102;86;33619;-59
2021/10/05 13:30:24;;;;;;;10.55;6.08;;;;;;;24.99;42.32;99555.90;2032600;86;28986;-61
2021/10/05 13:33:27;;;;;;;9.00;5.87;;;;;;;24.96;42.48;99558.17;2029161;86;27763;-59
2021/10/05 13:36:30;;;;;;;9.63;6.12;;;;;;;24.93;42.63;99555.30;2028762;87;28902;-60
2021/10/05 13:39:33;;;;;;;11.97;5.67;;;;;;;24.92;43.05;99556.84;2029251;86;31741;-60
2021/10/05 13:42:39;;;;;;;19.17;6.87;;;;;;;24.90;42.45;99564.43;2030757;86;32932;-60
2021/10/05 13:45:43;;;;;;;8.93;5.80;;;;;;;24.85;42.41;99561.72;1979338;88;28521;-59
2021/10/05 13:48:48;;;;;;;;;;;;;;;24.84;42.58;99561.89;2000842;88;27732;-62
2021/10/05 13:51:53;;;;;;;10.70;6.60;;;;;;;24.83;42.73;99562.93;1995274;88;29327;-60
2021/10/05 13:54:59;;;;;;;10.70;6.45;;;;;;;24.82;41.72;99547.03;1984913;88;31077;-60
2021/10/05 13:58:05;;;;;;;8.45;5.95;;;;;;;24.82;42.69;99557.98;2015091;86;32978;-60
2021/10/05 14:01:09;;;;;;;11.30;6.10;;;;;;;24.83;42.67;99562.43;2001516;87;29043;-61
2021/10/05 14:04:34;;;;;;;12.28;5.80;;;;;;;24.81;42.59;99558.19;2008132;87;27778;-61
2021/10/05 14:07:39;;;;;;;8.63;6.13;;;;;;;24.78;42.86;99561.30;2031903;86;29538;-59
2021/10/05 14:10:45;;;;;;;13.48;5.58;;;;;;;24.77;42.73;99552.21;2007996;86;31055;-61
2021/10/05 14:13:49;;;;;;;12.60;5.80;;;;;;;24.85;42.17;99554.88;1994084;88;34156;-60